sensor_id;sensor_type;location;lat;lon;timestamp;pressure;altitude;pressure_sealevel;temperature;humidity
35307;BME280;21420;52.196;21.416;2022-12-18T00:01:24;101554.47;;;-4.82;74.88
35307;BME280;21420;52.196;21.416;2022-12-18T00:03:57;101557.38;;;-4.84;74.85
35307;BME280;21420;52.196;21.416;2022-12-18T00:06:25;101563.02;;;-4.83;74.90
35307;BME280;21420;52.196;21.416;2022-12-18T00:08:54;101560.77;;;-4.79;74.95
35307;BME280;21420;52.196;21.416;2022-12-18T00:11:23;101568.78;;;-4.79;74.95
35307;BME280;21420;52.196;21.416;2022-12-18T00:13:50;101567.84;;;-4.75;75.02
35307;BME280;21420;52.196;21.416;2022-12-18T00:16:19;101576.70;;;-4.75;74.97
35307;BME280;21420;52.196;21.416;2022-12-18T00:18:50;101580.72;;;-4.75;74.96
35307;BME280;21420;52.196;21.416;2022-12-18T00:21:20;101587.27;;;-4.77;74.91
35307;BME280;21420;52.196;21.416;2022-12-18T00:23:48;101590.69;;;-4.79;74.89
35307;BME280;21420;52.196;21.416;2022-12-18T00:26:27;101589.55;;;-4.81;74.87
35307;BME280;21420;52.196;21.416;2022-12-18T00:29:01;101597.23;;;-4.82;74.90
35307;BME280;21420;52.196;21.416;2022-12-18T00:31:36;101587.49;;;-4.79;75.00
35307;BME280;21420;52.196;21.416;2022-12-18T00:34:03;101591.80;;;-4.78;75.00
35307;BME280;21420;52.196;21.416;2022-12-18T00:36:32;101594.37;;;-4.81;74.94
35307;BME280;21420;52.196;21.416;2022-12-18T00:39:01;101596.13;;;-4.84;74.88
35307;BME280;21420;52.196;21.416;2022-12-18T00:41:28;101600.94;;;-4.90;74.80
35307;BME280;21420;52.196;21.416;2022-12-18T00:44:16;101604.50;;;-5.00;74.67
35307;BME280;21420;52.196;21.416;2022-12-18T00:46:45;101611.59;;;-5.03;74.74
35307;BME280;21420;52.196;21.416;2022-12-18T00:49:12;101613.75;;;-5.03;74.79
35307;BME280;21420;52.196;21.416;2022-12-18T00:51:39;101619.32;;;-5.04;74.80
35307;BME280;21420;52.196;21.416;2022-12-18T00:54:05;101623.20;;;-5.00;74.86
35307;BME280;21420;52.196;21.416;2022-12-18T00:56:32;101623.95;;;-5.02;74.85
35307;BME280;21420;52.196;21.416;2022-12-18T00:58:58;101626.09;;;-5.02;74.84
35307;BME280;21420;52.196;21.416;2022-12-18T01:01:24;101621.57;;;-5.01;74.87
35307;BME280;21420;52.196;21.416;2022-12-18T01:03:51;101620.34;;;-4.98;74.90
35307;BME280;21420;52.196;21.416;2022-12-18T01:06:19;101624.67;;;-4.97;74.88
35307;BME280;21420;52.196;21.416;2022-12-18T01:08:46;101634.03;;;-4.97;74.86
35307;BME280;21420;52.196;21.416;2022-12-18T01:11:15;101636.38;;;-4.98;74.87
35307;BME280;21420;52.196;21.416;2022-12-18T01:13:43;101647.16;;;-4.96;74.87
35307;BME280;21420;52.196;21.416;2022-12-18T01:16:14;101650.98;;;-4.94;74.92
35307;BME280;21420;52.196;21.416;2022-12-18T01:18:42;101652.01;;;-4.89;75.02
35307;BME280;21420;52.196;21.416;2022-12-18T01:21:11;101650.91;;;-4.84;75.04
35307;BME280;21420;52.196;21.416;2022-12-18T01:23:39;101651.53;;;-4.82;75.02
35307;BME280;21420;52.196;21.416;2022-12-18T01:26:07;101648.03;;;-4.75;75.10
35307;BME280;21420;52.196;21.416;2022-12-18T01:28:35;101654.09;;;-4.71;75.13
35307;BME280;21420;52.196;21.416;2022-12-18T01:31:12;101661.41;;;-4.69;75.08
35307;BME280;21420;52.196;21.416;2022-12-18T01:33:43;101656.99;;;-4.72;74.99
35307;BME280;21420;52.196;21.416;2022-12-18T01:36:22;101661.72;;;-4.74;74.94
35307;BME280;21420;52.196;21.416;2022-12-18T01:38:51;101663.77;;;-4.76;74.87
35307;BME280;21420;52.196;21.416;2022-12-18T01:41:20;101665.81;;;-4.78;74.85
35307;BME280;21420;52.196;21.416;2022-12-18T01:43:56;101670.64;;;-4.78;74.89
35307;BME280;21420;52.196;21.416;2022-12-18T01:46:25;101671.88;;;-4.81;74.85
35307;BME280;21420;52.196;21.416;2022-12-18T01:48:57;101683.71;;;-4.79;74.86
35307;BME280;21420;52.196;21.416;2022-12-18T01:51:27;101682.38;;;-4.79;74.86
35307;BME280;21420;52.196;21.416;2022-12-18T01:53:57;101685.76;;;-4.81;74.83
35307;BME280;21420;52.196;21.416;2022-12-18T01:56:23;101693.97;;;-4.83;74.80
35307;BME280;21420;52.196;21.416;2022-12-18T01:59:07;101691.00;;;-4.84;74.82
35307;BME280;21420;52.196;21.416;2022-12-18T02:01:36;101696.53;;;-4.85;74.77
35307;BME280;21420;52.196;21.416;2022-12-18T02:04:25;101701.25;;;-4.87;74.75
35307;BME280;21420;52.196;21.416;2022-12-18T02:12:45;101703.09;;;-4.94;74.71
35307;BME280;21420;52.196;21.416;2022-12-18T02:18:12;101712.73;;;-4.93;74.80
35307;BME280;21420;52.196;21.416;2022-12-18T02:20:47;101709.46;;;-4.89;74.89
35307;BME280;21420;52.196;21.416;2022-12-18T02:23:49;101712.38;;;-4.84;74.89
35307;BME280;21420;52.196;21.416;2022-12-18T02:29:08;101723.99;;;-4.81;74.93
35307;BME280;21420;52.196;21.416;2022-12-18T02:31:38;101732.34;;;-4.79;74.91
35307;BME280;21420;52.196;21.416;2022-12-18T02:34:07;101731.11;;;-4.77;74.92
35307;BME280;21420;52.196;21.416;2022-12-18T02:36:38;101730.89;;;-4.75;74.93
35307;BME280;21420;52.196;21.416;2022-12-18T02:39:09;101734.70;;;-4.74;74.91
35307;BME280;21420;52.196;21.416;2022-12-18T02:41:39;101744.25;;;-4.75;74.84
35307;BME280;21420;52.196;21.416;2022-12-18T02:44:09;101745.39;;;-4.74;74.87
35307;BME280;21420;52.196;21.416;2022-12-18T02:46:45;101743.64;;;-4.71;74.87
35307;BME280;21420;52.196;21.416;2022-12-18T03:00:20;101761.75;;;-4.66;74.88
35307;BME280;21420;52.196;21.416;2022-12-18T03:03:09;101763.61;;;-4.67;74.83
35307;BME280;21420;52.196;21.416;2022-12-18T03:05:41;101772.26;;;-4.65;74.87
35307;BME280;21420;52.196;21.416;2022-12-18T03:08:23;101768.44;;;-4.66;74.86
35307;BME280;21420;52.196;21.416;2022-12-18T03:10:58;101774.93;;;-4.65;74.87
35307;BME280;21420;52.196;21.416;2022-12-18T03:13:39;101774.11;;;-4.65;74.91
35307;BME280;21420;52.196;21.416;2022-12-18T03:18:52;101778.86;;;-4.61;74.98
35307;BME280;21420;52.196;21.416;2022-12-18T03:21:28;101793.15;;;-4.57;74.97
35307;BME280;21420;52.196;21.416;2022-12-18T03:23:58;101791.20;;;-4.53;75.00
35307;BME280;21420;52.196;21.416;2022-12-18T03:26:27;101789.05;;;-4.53;74.90
35307;BME280;21420;52.196;21.416;2022-12-18T03:29:03;101790.72;;;-4.52;74.90
35307;BME280;21420;52.196;21.416;2022-12-18T03:31:37;101796.99;;;-4.49;74.92
35307;BME280;21420;52.196;21.416;2022-12-18T03:34:13;101794.31;;;-4.49;74.92
35307;BME280;21420;52.196;21.416;2022-12-18T03:36:42;101798.63;;;-4.48;74.92
35307;BME280;21420;52.196;21.416;2022-12-18T03:39:08;101797.72;;;-4.45;74.96
35307;BME280;21420;52.196;21.416;2022-12-18T03:41:46;101798.77;;;-4.46;74.87
35307;BME280;21420;52.196;21.416;2022-12-18T03:44:21;101800.09;;;-4.46;74.87
35307;BME280;21420;52.196;21.416;2022-12-18T03:52:55;101823.65;;;-4.45;74.84
35307;BME280;21420;52.196;21.416;2022-12-18T03:55:29;101825.28;;;-4.44;74.87
35307;BME280;21420;52.196;21.416;2022-12-18T03:57:59;101825.61;;;-4.43;74.89
35307;BME280;21420;52.196;21.416;2022-12-18T04:00:30;101833.11;;;-4.43;74.89
35307;BME280;21420;52.196;21.416;2022-12-18T04:02:59;101835.27;;;-4.42;74.89
35307;BME280;21420;52.196;21.416;2022-12-18T04:05:29;101833.73;;;-4.41;74.89
35307;BME280;21420;52.196;21.416;2022-12-18T04:07:57;101836.30;;;-4.43;74.87
35307;BME280;21420;52.196;21.416;2022-12-18T04:10:24;101839.69;;;-4.45;74.80
35307;BME280;21420;52.196;21.416;2022-12-18T04:12:51;101843.78;;;-4.49;74.78
35307;BME280;21420;52.196;21.416;2022-12-18T04:15:21;101845.12;;;-4.49;74.76
35307;BME280;21420;52.196;21.416;2022-12-18T04:17:48;101845.12;;;-4.49;74.74
35307;BME280;21420;52.196;21.416;2022-12-18T04:20:17;101853.23;;;-4.53;74.66
35307;BME280;21420;52.196;21.416;2022-12-18T04:22:44;101856.94;;;-4.54;74.70
35307;BME280;21420;52.196;21.416;2022-12-18T04:25:11;101858.91;;;-4.52;74.73
35307;BME280;21420;52.196;21.416;2022-12-18T04:27:39;101858.05;;;-4.53;74.71
35307;BME280;21420;52.196;21.416;2022-12-18T04:30:06;101860.24;;;-4.52;74.71
35307;BME280;21420;52.196;21.416;2022-12-18T04:32:34;101868.56;;;-4.51;74.72
35307;BME280;21420;52.196;21.416;2022-12-18T04:35:00;101866.92;;;-4.52;74.73
35307;BME280;21420;52.196;21.416;2022-12-18T04:37:27;101878.81;;;-4.55;74.65
35307;BME280;21420;52.196;21.416;2022-12-18T04:39:54;101885.72;;;-4.56;74.60
35307;BME280;21420;52.196;21.416;2022-12-18T04:42:22;101879.19;;;-4.65;74.51
35307;BME280;21420;52.196;21.416;2022-12-18T04:44:48;101890.92;;;-4.66;74.54
35307;BME280;21420;52.196;21.416;2022-12-18T04:47:14;101900.36;;;-4.70;74.53
35307;BME280;21420;52.196;21.416;2022-12-18T04:49:45;101896.72;;;-4.73;74.50
35307;BME280;21420;52.196;21.416;2022-12-18T04:52:08;101905.97;;;-4.75;74.47
35307;BME280;21420;52.196;21.416;2022-12-18T04:54:34;101902.36;;;-4.78;74.51
35307;BME280;21420;52.196;21.416;2022-12-18T04:57:00;101908.00;;;-4.77;74.55
35307;BME280;21420;52.196;21.416;2022-12-18T04:59:27;101909.86;;;-4.78;74.57
35307;BME280;21420;52.196;21.416;2022-12-18T05:01:53;101907.19;;;-4.78;74.57
35307;BME280;21420;52.196;21.416;2022-12-18T05:04:19;101913.05;;;-4.78;74.58
35307;BME280;21420;52.196;21.416;2022-12-18T05:06:46;101907.41;;;-4.79;74.57
35307;BME280;21420;52.196;21.416;2022-12-18T05:09:12;101920.51;;;-4.85;74.46
35307;BME280;21420;52.196;21.416;2022-12-18T05:11:38;101919.24;;;-4.89;74.46
35307;BME280;21420;52.196;21.416;2022-12-18T05:14:04;101927.27;;;-4.89;74.51
35307;BME280;21420;52.196;21.416;2022-12-18T05:16:30;101928.59;;;-4.89;74.51
35307;BME280;21420;52.196;21.416;2022-12-18T05:18:57;101937.65;;;-4.90;74.50
35307;BME280;21420;52.196;21.416;2022-12-18T05:21:23;101937.77;;;-4.87;74.55
35307;BME280;21420;52.196;21.416;2022-12-18T05:23:49;101932.70;;;-4.93;74.55
35307;BME280;21420;52.196;21.416;2022-12-18T05:26:17;101940.77;;;-4.86;74.60
35307;BME280;21420;52.196;21.416;2022-12-18T05:28:44;101951.77;;;-4.85;74.58
35307;BME280;21420;52.196;21.416;2022-12-18T05:31:11;101944.85;;;-4.90;74.55
35307;BME280;21420;52.196;21.416;2022-12-18T05:33:38;101957.41;;;-4.84;74.58
35307;BME280;21420;52.196;21.416;2022-12-18T05:36:06;101956.08;;;-4.84;74.56
35307;BME280;21420;52.196;21.416;2022-12-18T05:38:35;101959.97;;;-4.87;74.54
35307;BME280;21420;52.196;21.416;2022-12-18T05:41:03;101968.09;;;-4.84;74.59
35307;BME280;21420;52.196;21.416;2022-12-18T05:43:31;101965.87;;;-4.81;74.64
35307;BME280;21420;52.196;21.416;2022-12-18T05:46:07;101978.09;;;-4.82;74.56
35307;BME280;21420;52.196;21.416;2022-12-18T05:48:36;101983.08;;;-4.90;74.49
35307;BME280;21420;52.196;21.416;2022-12-18T05:51:05;101986.73;;;-4.97;74.41
35307;BME280;21420;52.196;21.416;2022-12-18T05:53:36;101992.14;;;-5.02;74.40
35307;BME280;21420;52.196;21.416;2022-12-18T05:56:05;101993.78;;;-5.00;74.49
35307;BME280;21420;52.196;21.416;2022-12-18T05:58:33;101997.27;;;-5.00;74.52
35307;BME280;21420;52.196;21.416;2022-12-18T06:01:11;102001.61;;;-4.99;74.59
35307;BME280;21420;52.196;21.416;2022-12-18T06:03:40;102009.00;;;-5.01;74.54
35307;BME280;21420;52.196;21.416;2022-12-18T06:06:23;102012.19;;;-5.02;74.55
35307;BME280;21420;52.196;21.416;2022-12-18T06:08:52;102014.03;;;-5.02;74.56
35307;BME280;21420;52.196;21.416;2022-12-18T06:11:25;102015.80;;;-5.09;74.43
35307;BME280;21420;52.196;21.416;2022-12-18T06:13:51;102027.06;;;-5.14;74.36
35307;BME280;21420;52.196;21.416;2022-12-18T06:16:19;102030.00;;;-5.19;74.29
35307;BME280;21420;52.196;21.416;2022-12-18T06:18:45;102028.20;;;-5.23;74.30
35307;BME280;21420;52.196;21.416;2022-12-18T06:21:12;102035.80;;;-5.27;74.25
35307;BME280;21420;52.196;21.416;2022-12-18T06:23:38;102038.12;;;-5.28;74.27
35307;BME280;21420;52.196;21.416;2022-12-18T06:26:07;102043.47;;;-5.28;74.30
35307;BME280;21420;52.196;21.416;2022-12-18T06:28:34;102046.53;;;-5.31;74.25
35307;BME280;21420;52.196;21.416;2022-12-18T06:31:01;102044.38;;;-5.31;74.29
35307;BME280;21420;52.196;21.416;2022-12-18T06:33:29;102054.16;;;-5.28;74.33
35307;BME280;21420;52.196;21.416;2022-12-18T06:36:11;102054.16;;;-5.28;74.33
35307;BME280;21420;52.196;21.416;2022-12-18T06:38:38;102050.66;;;-5.28;74.32
35307;BME280;21420;52.196;21.416;2022-12-18T06:41:12;102057.91;;;-5.33;74.25
35307;BME280;21420;52.196;21.416;2022-12-18T06:43:40;102060.89;;;-5.32;74.26
35307;BME280;21420;52.196;21.416;2022-12-18T06:46:07;102072.14;;;-5.36;74.21
35307;BME280;21420;52.196;21.416;2022-12-18T06:48:34;102076.96;;;-5.36;74.28
35307;BME280;21420;52.196;21.416;2022-12-18T06:51:00;102080.61;;;-5.33;74.31
35307;BME280;21420;52.196;21.416;2022-12-18T06:53:28;102086.95;;;-5.34;74.29
35307;BME280;21420;52.196;21.416;2022-12-18T06:56:03;102093.38;;;-5.39;74.17
35307;BME280;21420;52.196;21.416;2022-12-18T06:58:31;102099.92;;;-5.41;74.16
35307;BME280;21420;52.196;21.416;2022-12-18T07:01:01;102106.30;;;-5.42;74.17
35307;BME280;21420;52.196;21.416;2022-12-18T07:03:28;102103.67;;;-5.47;74.12
35307;BME280;21420;52.196;21.416;2022-12-18T07:05:56;102111.30;;;-5.44;74.22
35307;BME280;21420;52.196;21.416;2022-12-18T07:08:22;102123.48;;;-5.45;74.15
35307;BME280;21420;52.196;21.416;2022-12-18T07:10:50;102122.49;;;-5.44;74.21
35307;BME280;21420;52.196;21.416;2022-12-18T07:13:16;102124.64;;;-5.44;74.19
35307;BME280;21420;52.196;21.416;2022-12-18T07:15:43;102134.13;;;-5.41;74.22
35307;BME280;21420;52.196;21.416;2022-12-18T07:18:10;102144.45;;;-5.38;74.27
35307;BME280;21420;52.196;21.416;2022-12-18T07:20:36;102146.91;;;-5.36;74.26
35307;BME280;21420;52.196;21.416;2022-12-18T07:23:03;102147.25;;;-5.35;74.27
35307;BME280;21420;52.196;21.416;2022-12-18T07:25:34;102150.56;;;-5.33;74.27
35307;BME280;21420;52.196;21.416;2022-12-18T07:28:03;102155.01;;;-5.30;74.30
35307;BME280;21420;52.196;21.416;2022-12-18T07:30:31;102163.92;;;-5.23;74.39
35307;BME280;21420;52.196;21.416;2022-12-18T07:32:57;102168.00;;;-5.16;74.45
35307;BME280;21420;52.196;21.416;2022-12-18T07:35:23;102168.59;;;-5.10;74.45
35307;BME280;21420;52.196;21.416;2022-12-18T07:37:50;102174.20;;;-5.05;74.46
35307;BME280;21420;52.196;21.416;2022-12-18T07:40:16;102180.65;;;-4.99;74.46
35307;BME280;21420;52.196;21.416;2022-12-18T07:42:44;102177.28;;;-4.97;74.39
35307;BME280;21420;52.196;21.416;2022-12-18T07:45:10;102174.04;;;-4.92;74.46
35307;BME280;21420;52.196;21.416;2022-12-18T07:47:37;102171.44;;;-4.86;74.47
35307;BME280;21420;52.196;21.416;2022-12-18T07:50:04;102167.16;;;-4.80;74.48
35307;BME280;21420;52.196;21.416;2022-12-18T07:52:31;102174.25;;;-4.72;74.55
35307;BME280;21420;52.196;21.416;2022-12-18T07:54:57;102180.61;;;-4.63;74.61
35307;BME280;21420;52.196;21.416;2022-12-18T07:57:27;102188.70;;;-4.56;74.57
35307;BME280;21420;52.196;21.416;2022-12-18T07:59:54;102188.30;;;-4.53;74.53
35307;BME280;21420;52.196;21.416;2022-12-18T08:02:20;102189.77;;;-4.50;74.44
35307;BME280;21420;52.196;21.416;2022-12-18T08:04:47;102194.50;;;-4.52;74.34
35307;BME280;21420;52.196;21.416;2022-12-18T08:07:13;102196.45;;;-4.50;74.30
35307;BME280;21420;52.196;21.416;2022-12-18T08:09:39;102203.65;;;-4.51;74.23
35307;BME280;21420;52.196;21.416;2022-12-18T08:12:07;102206.66;;;-4.50;74.18
35307;BME280;21420;52.196;21.416;2022-12-18T08:14:34;102211.67;;;-4.51;74.12
35307;BME280;21420;52.196;21.416;2022-12-18T08:17:00;102209.82;;;-4.50;74.09
35307;BME280;21420;52.196;21.416;2022-12-18T08:19:28;102209.82;;;-4.50;74.05
35307;BME280;21420;52.196;21.416;2022-12-18T08:21:54;102217.14;;;-4.48;74.06
35307;BME280;21420;52.196;21.416;2022-12-18T08:24:21;102220.73;;;-4.41;74.19
35307;BME280;21420;52.196;21.416;2022-12-18T08:26:47;102224.48;;;-4.35;74.19
35307;BME280;21420;52.196;21.416;2022-12-18T08:29:13;102227.78;;;-4.44;73.96
35307;BME280;21420;52.196;21.416;2022-12-18T08:31:39;102226.50;;;-4.48;73.90
35307;BME280;21420;52.196;21.416;2022-12-18T08:34:07;102241.55;;;-4.47;73.90
35307;BME280;21420;52.196;21.416;2022-12-18T08:36:34;102243.83;;;-4.44;73.92
35307;BME280;21420;52.196;21.416;2022-12-18T08:39:01;102246.72;;;-4.46;73.88
35307;BME280;21420;52.196;21.416;2022-12-18T08:41:28;102253.52;;;-4.54;73.69
35307;BME280;21420;52.196;21.416;2022-12-18T08:43:54;102254.98;;;-4.51;73.83
35307;BME280;21420;52.196;21.416;2022-12-18T08:46:41;102258.48;;;-4.40;74.02
35307;BME280;21420;52.196;21.416;2022-12-18T08:49:09;102261.05;;;-4.32;74.00
35307;BME280;21420;52.196;21.416;2022-12-18T08:51:38;102266.64;;;-4.37;73.78
35307;BME280;21420;52.196;21.416;2022-12-18T08:54:08;102265.28;;;-4.48;73.54
35307;BME280;21420;52.196;21.416;2022-12-18T08:56:39;102268.41;;;-4.55;73.49
35307;BME280;21420;52.196;21.416;2022-12-18T08:59:06;102268.05;;;-4.52;73.64
35307;BME280;21420;52.196;21.416;2022-12-18T09:01:34;102264.02;;;-4.42;73.88
35307;BME280;21420;52.196;21.416;2022-12-18T09:04:02;102274.98;;;-4.26;74.07
35307;BME280;21420;52.196;21.416;2022-12-18T09:06:28;102275.16;;;-4.06;74.25
35307;BME280;21420;52.196;21.416;2022-12-18T09:08:57;102274.45;;;-3.82;74.45
35307;BME280;21420;52.196;21.416;2022-12-18T09:11:27;102268.73;;;-3.62;74.51
35307;BME280;21420;52.196;21.416;2022-12-18T09:13:55;102277.63;;;-3.54;74.32
35307;BME280;21420;52.196;21.416;2022-12-18T09:16:23;102288.65;;;-3.71;73.77
35307;BME280;21420;52.196;21.416;2022-12-18T09:18:51;102284.00;;;-3.73;73.79
35307;BME280;21420;52.196;21.416;2022-12-18T09:21:20;102282.70;;;-3.66;73.89
35307;BME280;21420;52.196;21.416;2022-12-18T09:23:50;102284.21;;;-3.57;74.03
35307;BME280;21420;52.196;21.416;2022-12-18T09:26:17;102291.73;;;-3.57;73.89
35307;BME280;21420;52.196;21.416;2022-12-18T09:28:44;102298.88;;;-3.53;73.87
35307;BME280;21420;52.196;21.416;2022-12-18T09:31:12;102296.73;;;-3.64;73.55
35307;BME280;21420;52.196;21.416;2022-12-18T09:33:40;102292.08;;;-3.66;73.53
35307;BME280;21420;52.196;21.416;2022-12-18T09:36:10;102292.38;;;-3.65;73.65
35307;BME280;21420;52.196;21.416;2022-12-18T09:38:37;102297.86;;;-3.35;74.19
35307;BME280;21420;52.196;21.416;2022-12-18T09:44:09;102298.22;;;-3.44;73.69
35307;BME280;21420;52.196;21.416;2022-12-18T09:47:02;102295.16;;;-3.52;73.55
35307;BME280;21420;52.196;21.416;2022-12-18T09:49:46;102291.27;;;-3.78;73.14
35307;BME280;21420;52.196;21.416;2022-12-18T09:52:34;102294.47;;;-3.89;73.18
35307;BME280;21420;52.196;21.416;2022-12-18T09:57:49;102298.61;;;-3.75;73.56
35307;BME280;21420;52.196;21.416;2022-12-18T10:00:22;102310.83;;;-3.66;73.68
35307;BME280;21420;52.196;21.416;2022-12-18T10:02:53;102310.81;;;-3.56;73.78
35307;BME280;21420;52.196;21.416;2022-12-18T10:17:32;102313.21;;;-3.78;73.45
35307;BME280;21420;52.196;21.416;2022-12-18T10:20:01;102311.72;;;-3.81;73.40
35307;BME280;21420;52.196;21.416;2022-12-18T10:28:15;102302.03;;;-3.71;73.42
35307;BME280;21420;52.196;21.416;2022-12-18T10:30:43;102302.29;;;-3.87;73.20
35307;BME280;21420;52.196;21.416;2022-12-18T10:33:19;102305.88;;;-3.91;73.27
35307;BME280;21420;52.196;21.416;2022-12-18T10:35:53;102313.85;;;-3.87;73.41
35307;BME280;21420;52.196;21.416;2022-12-18T10:40:56;102325.33;;;-3.54;73.85
35307;BME280;21420;52.196;21.416;2022-12-18T10:43:31;102331.61;;;-3.40;73.96
35307;BME280;21420;52.196;21.416;2022-12-18T10:48:56;102330.31;;;-3.33;73.69
35307;BME280;21420;52.196;21.416;2022-12-18T10:51:31;102328.79;;;-3.32;73.66
35307;BME280;21420;52.196;21.416;2022-12-18T10:54:13;102334.28;;;-3.40;73.48
35307;BME280;21420;52.196;21.416;2022-12-18T10:56:46;102329.49;;;-3.34;73.69
35307;BME280;21420;52.196;21.416;2022-12-18T10:59:15;102330.03;;;-3.17;73.96
35307;BME280;21420;52.196;21.416;2022-12-18T11:01:55;102331.56;;;-3.01;74.10
35307;BME280;21420;52.196;21.416;2022-12-18T11:04:27;102333.06;;;-2.92;74.11
35307;BME280;21420;52.196;21.416;2022-12-18T11:07:02;102330.55;;;-2.76;74.18
35307;BME280;21420;52.196;21.416;2022-12-18T11:09:36;102319.44;;;-2.66;74.12
35307;BME280;21420;52.196;21.416;2022-12-18T11:12:14;102326.38;;;-2.61;74.08
35307;BME280;21420;52.196;21.416;2022-12-18T11:14:46;102333.34;;;-2.49;74.18
35307;BME280;21420;52.196;21.416;2022-12-18T11:17:27;102332.05;;;-2.36;74.24
35307;BME280;21420;52.196;21.416;2022-12-18T11:20:04;102332.89;;;-2.29;74.21
35307;BME280;21420;52.196;21.416;2022-12-18T11:22:35;102333.92;;;-2.23;74.16
35307;BME280;21420;52.196;21.416;2022-12-18T11:25:04;102338.30;;;-2.16;74.21
35307;BME280;21420;52.196;21.416;2022-12-18T11:27:33;102345.42;;;-2.05;74.27
35307;BME280;21420;52.196;21.416;2022-12-18T11:30:20;102347.83;;;-2.00;74.28
35307;BME280;21420;52.196;21.416;2022-12-18T11:32:45;102348.03;;;-1.95;74.26
35307;BME280;21420;52.196;21.416;2022-12-18T11:36:03;102352.80;;;-1.83;74.33
35307;BME280;21420;52.196;21.416;2022-12-18T11:38:17;102350.94;;;-1.76;74.30
35307;BME280;21420;52.196;21.416;2022-12-18T11:43:56;102344.95;;;-1.65;74.24
35307;BME280;21420;52.196;21.416;2022-12-18T11:49:11;102339.37;;;-1.83;73.65
35307;BME280;21420;52.196;21.416;2022-12-18T11:54:15;102347.38;;;-2.10;73.48
35307;BME280;21420;52.196;21.416;2022-12-18T11:56:58;102355.83;;;-2.20;73.49
35307;BME280;21420;52.196;21.416;2022-12-18T12:10:53;102337.09;;;-1.93;74.09
35307;BME280;21420;52.196;21.416;2022-12-18T12:19:37;102355.69;;;-1.78;73.98
35307;BME280;21420;52.196;21.416;2022-12-18T12:21:58;102356.39;;;-1.87;73.77
35307;BME280;21420;52.196;21.416;2022-12-18T12:24:41;102353.30;;;-1.97;73.68
35307;BME280;21420;52.196;21.416;2022-12-18T12:30:24;102373.55;;;-1.95;73.79
35307;BME280;21420;52.196;21.416;2022-12-18T12:35:52;102373.61;;;-2.05;73.58
35307;BME280;21420;52.196;21.416;2022-12-18T12:38:37;102381.39;;;-2.31;73.24
35307;BME280;21420;52.196;21.416;2022-12-18T12:41:07;102390.98;;;-2.32;73.47
35307;BME280;21420;52.196;21.416;2022-12-18T12:43:45;102390.52;;;-2.25;73.70
35307;BME280;21420;52.196;21.416;2022-12-18T12:46:15;102380.20;;;-2.15;73.87
35307;BME280;21420;52.196;21.416;2022-12-18T12:51:18;102378.28;;;-1.97;74.10
35307;BME280;21420;52.196;21.416;2022-12-18T12:53:47;102386.78;;;-1.93;74.06
35307;BME280;21420;52.196;21.416;2022-12-18T12:56:17;102386.15;;;-1.95;73.98
35307;BME280;21420;52.196;21.416;2022-12-18T13:04:46;102400.29;;;-1.97;73.82
35307;BME280;21420;52.196;21.416;2022-12-18T13:07:32;102411.94;;;-2.01;73.77
35307;BME280;21420;52.196;21.416;2022-12-18T13:10:33;102418.88;;;-2.02;73.83
35307;BME280;21420;52.196;21.416;2022-12-18T13:23:30;102406.27;;;-2.33;73.32
35307;BME280;21420;52.196;21.416;2022-12-18T13:26:27;102416.06;;;-2.36;73.51
35307;BME280;21420;52.196;21.416;2022-12-18T13:28:50;102428.74;;;-2.40;73.53
35307;BME280;21420;52.196;21.416;2022-12-18T13:34:35;102425.09;;;-2.67;73.20
35307;BME280;21420;52.196;21.416;2022-12-18T13:37:54;102425.42;;;-2.77;73.27
35307;BME280;21420;52.196;21.416;2022-12-18T13:40:01;102434.98;;;-2.85;73.24
35307;BME280;21420;52.196;21.416;2022-12-18T13:42:38;102431.93;;;-2.93;73.28
35307;BME280;21420;52.196;21.416;2022-12-18T13:45:45;102449.00;;;-3.01;73.21
35307;BME280;21420;52.196;21.416;2022-12-18T13:48:23;102442.31;;;-3.11;73.16
35307;BME280;21420;52.196;21.416;2022-12-18T13:50:53;102447.20;;;-3.22;73.15
35307;BME280;21420;52.196;21.416;2022-12-18T13:53:30;102451.80;;;-3.26;73.22
35307;BME280;21420;52.196;21.416;2022-12-18T13:56:03;102450.13;;;-3.38;73.13
35307;BME280;21420;52.196;21.416;2022-12-18T13:58:30;102451.86;;;-3.41;73.19
35307;BME280;21420;52.196;21.416;2022-12-18T14:00:57;102452.20;;;-3.51;73.09
35307;BME280;21420;52.196;21.416;2022-12-18T14:03:27;102446.83;;;-3.62;73.04
35307;BME280;21420;52.196;21.416;2022-12-18T14:06:00;102445.37;;;-3.64;73.10
35307;BME280;21420;52.196;21.416;2022-12-18T14:08:33;102456.13;;;-3.68;73.14
35307;BME280;21420;52.196;21.416;2022-12-18T14:11:05;102456.01;;;-3.71;73.18
35307;BME280;21420;52.196;21.416;2022-12-18T14:13:39;102467.73;;;-3.72;73.23
35307;BME280;21420;52.196;21.416;2022-12-18T14:16:07;102476.59;;;-3.82;73.04
35307;BME280;21420;52.196;21.416;2022-12-18T14:18:48;102483.20;;;-3.89;73.08
35307;BME280;21420;52.196;21.416;2022-12-18T14:21:23;102486.23;;;-3.92;73.10
35307;BME280;21420;52.196;21.416;2022-12-18T14:24:27;102479.03;;;-4.02;72.97
35307;BME280;21420;52.196;21.416;2022-12-18T14:26:36;102489.52;;;-4.11;73.00
35307;BME280;21420;52.196;21.416;2022-12-18T14:32:15;102496.86;;;-4.24;73.07
35307;BME280;21420;52.196;21.416;2022-12-18T14:37:24;102490.87;;;-4.26;73.21
35307;BME280;21420;52.196;21.416;2022-12-18T14:39:59;102490.73;;;-4.29;73.19
35307;BME280;21420;52.196;21.416;2022-12-18T14:42:31;102491.69;;;-4.26;73.29
35307;BME280;21420;52.196;21.416;2022-12-18T14:45:35;102495.34;;;-4.23;73.37
35307;BME280;21420;52.196;21.416;2022-12-18T14:48:18;102498.84;;;-4.22;73.39
35307;BME280;21420;52.196;21.416;2022-12-18T14:50:40;102503.89;;;-4.23;73.37
35307;BME280;21420;52.196;21.416;2022-12-18T14:53:20;102507.70;;;-4.22;73.41
35307;BME280;21420;52.196;21.416;2022-12-18T14:55:55;102503.24;;;-4.25;73.33
35307;BME280;21420;52.196;21.416;2022-12-18T14:58:22;102505.53;;;-4.22;73.39
35307;BME280;21420;52.196;21.416;2022-12-18T15:00:49;102508.91;;;-4.24;73.33